sensor_id;sensor_type;location;lat;lon;timestamp;P1;durP1;ratioP1;P2;durP2;ratioP2
46429;SDS011;32131;53.454;-6.180;2023-03-14T08:04:32;2.40;;;0.57;;
46429;SDS011;32131;53.454;-6.180;2023-03-14T08:07:00;6.97;;;0.85;;
46429;SDS011;32131;53.454;-6.180;2023-03-14T08:09:28;6.40;;;0.77;;
46429;SDS011;32131;53.454;-6.180;2023-03-14T08:11:57;1.77;;;0.60;;
46429;SDS011;32131;53.454;-6.180;2023-03-14T08:14:25;5.85;;;1.15;;
46429;SDS011;32131;53.454;-6.180;2023-03-14T08:16:55;3.50;;;0.60;;
46429;SDS011;32131;53.454;-6.180;2023-03-14T08:19:23;3.72;;;0.65;;
46429;SDS011;32131;53.454;-6.180;2023-03-14T08:21:53;5.03;;;1.42;;
46429;SDS011;32131;53.454;-6.180;2023-03-14T08:24:21;2.75;;;1.00;;
46429;SDS011;32131;53.454;-6.180;2023-03-14T08:26:50;5.22;;;1.02;;
46429;SDS011;32131;53.454;-6.180;2023-03-14T08:29:18;5.97;;;1.15;;
46429;SDS011;32131;53.454;-6.180;2023-03-14T08:31:46;4.90;;;0.70;;
46429;SDS011;32131;53.454;-6.180;2023-03-14T08:34:15;1.73;;;0.65;;
46429;SDS011;32131;53.454;-6.180;2023-03-14T08:36:44;5.10;;;0.93;;
46429;SDS011;32131;53.454;-6.180;2023-03-14T08:39:14;8.85;;;1.20;;
46429;SDS011;32131;53.454;-6.180;2023-03-14T08:41:44;7.60;;;1.20;;
46429;SDS011;32131;53.454;-6.180;2023-03-14T08:44:14;3.08;;;0.85;;
46429;SDS011;32131;53.454;-6.180;2023-03-14T08:46:46;3.47;;;1.00;;
46429;SDS011;32131;53.454;-6.180;2023-03-14T08:49:14;9.00;;;2.00;;
46429;SDS011;32131;53.454;-6.180;2023-03-14T08:51:42;2.90;;;1.42;;
46429;SDS011;32131;53.454;-6.180;2023-03-14T08:54:11;4.82;;;1.17;;
46429;SDS011;32131;53.454;-6.180;2023-03-14T08:56:40;7.28;;;1.73;;
46429;SDS011;32131;53.454;-6.180;2023-03-14T08:59:09;4.78;;;0.90;;
46429;SDS011;32131;53.454;-6.180;2023-03-14T09:01:38;2.00;;;1.03;;
46429;SDS011;32131;53.454;-6.180;2023-03-14T09:04:06;3.75;;;0.85;;
46429;SDS011;32131;53.454;-6.180;2023-03-14T09:06:36;3.33;;;1.05;;
46429;SDS011;32131;53.454;-6.180;2023-03-14T09:09:04;7.18;;;1.08;;
46429;SDS011;32131;53.454;-6.180;2023-03-14T09:11:33;1.17;;;0.60;;
46429;SDS011;32131;53.454;-6.180;2023-03-14T09:14:03;4.50;;;1.48;;
46429;SDS011;32131;53.454;-6.180;2023-03-14T09:19:01;3.35;;;0.75;;
46429;SDS011;32131;53.454;-6.180;2023-03-14T09:21:29;6.22;;;0.77;;
46429;SDS011;32131;53.454;-6.180;2023-03-14T09:23:57;4.50;;;0.88;;
46429;SDS011;32131;53.454;-6.180;2023-03-14T09:26:26;6.97;;;1.13;;
46429;SDS011;32131;53.454;-6.180;2023-03-14T09:28:54;1.90;;;0.93;;
46429;SDS011;32131;53.454;-6.180;2023-03-14T09:31:26;1.77;;;0.63;;
46429;SDS011;32131;53.454;-6.180;2023-03-14T09:33:56;1.90;;;0.52;;
46429;SDS011;32131;53.454;-6.180;2023-03-14T09:36:24;9.52;;;0.93;;
46429;SDS011;32131;53.454;-6.180;2023-03-14T09:38:52;4.43;;;1.25;;
46429;SDS011;32131;53.454;-6.180;2023-03-14T09:41:21;1.30;;;0.57;;
46429;SDS011;32131;53.454;-6.180;2023-03-14T09:43:55;3.38;;;0.52;;
46429;SDS011;32131;53.454;-6.180;2023-03-14T09:46:32;7.90;;;0.93;;
46429;SDS011;32131;53.454;-6.180;2023-03-14T09:49:07;3.42;;;0.57;;
46429;SDS011;32131;53.454;-6.180;2023-03-14T09:51:40;4.60;;;1.38;;
46429;SDS011;32131;53.454;-6.180;2023-03-14T09:54:15;6.07;;;1.05;;
46429;SDS011;32131;53.454;-6.180;2023-03-14T09:56:52;5.03;;;0.82;;
46429;SDS011;32131;53.454;-6.180;2023-03-14T09:59:21;4.43;;;1.00;;
46429;SDS011;32131;53.454;-6.180;2023-03-14T10:01:50;5.43;;;0.52;;
46429;SDS011;32131;53.454;-6.180;2023-03-14T10:04:21;3.92;;;1.25;;
46429;SDS011;32131;53.454;-6.180;2023-03-14T10:06:50;3.50;;;1.02;;
46429;SDS011;32131;53.454;-6.180;2023-03-14T10:09:19;7.03;;;0.65;;
46429;SDS011;32131;53.454;-6.180;2023-03-14T10:11:54;4.38;;;0.88;;
46429;SDS011;32131;53.454;-6.180;2023-03-14T10:14:35;5.40;;;0.70;;
46429;SDS011;32131;53.454;-6.180;2023-03-14T10:17:07;7.07;;;0.52;;
46429;SDS011;32131;53.454;-6.180;2023-03-14T10:19:37;5.65;;;0.82;;
46429;SDS011;32131;53.454;-6.180;2023-03-14T10:22:21;11.90;;;1.48;;
46429;SDS011;32131;53.454;-6.180;2023-03-14T10:24:53;6.00;;;0.75;;
46429;SDS011;32131;53.454;-6.180;2023-03-14T10:27:27;5.50;;;0.85;;
46429;SDS011;32131;53.454;-6.180;2023-03-14T10:29:57;6.85;;;1.00;;
46429;SDS011;32131;53.454;-6.180;2023-03-14T10:35:04;5.72;;;0.75;;
46429;SDS011;32131;53.454;-6.180;2023-03-14T10:37:50;7.38;;;1.20;;
46429;SDS011;32131;53.454;-6.180;2023-03-14T10:40:23;5.65;;;0.73;;
46429;SDS011;32131;53.454;-6.180;2023-03-14T10:42:56;2.78;;;0.52;;
46429;SDS011;32131;53.454;-6.180;2023-03-14T10:45:34;2.42;;;1.05;;
46429;SDS011;32131;53.454;-6.180;2023-03-14T10:51:03;2.53;;;0.70;;
46429;SDS011;32131;53.454;-6.180;2023-03-14T10:53:34;7.88;;;1.25;;
46429;SDS011;32131;53.454;-6.180;2023-03-14T10:56:11;8.02;;;1.88;;
46429;SDS011;32131;53.454;-6.180;2023-03-14T10:58:41;5.93;;;1.17;;
46429;SDS011;32131;53.454;-6.180;2023-03-14T11:01:25;2.88;;;0.90;;
46429;SDS011;32131;53.454;-6.180;2023-03-14T11:04:06;6.22;;;0.93;;
46429;SDS011;32131;53.454;-6.180;2023-03-14T11:06:44;10.25;;;0.95;;
46429;SDS011;32131;53.454;-6.180;2023-03-14T11:09:20;2.72;;;0.70;;
46429;SDS011;32131;53.454;-6.180;2023-03-14T11:11:56;6.43;;;0.98;;
46429;SDS011;32131;53.454;-6.180;2023-03-14T11:14:36;5.22;;;0.65;;
46429;SDS011;32131;53.454;-6.180;2023-03-14T11:17:10;5.07;;;0.63;;
46429;SDS011;32131;53.454;-6.180;2023-03-14T11:19:49;2.38;;;0.75;;
46429;SDS011;32131;53.454;-6.180;2023-03-14T11:22:27;3.97;;;0.80;;
46429;SDS011;32131;53.454;-6.180;2023-03-14T11:25:06;6.30;;;0.73;;
46429;SDS011;32131;53.454;-6.180;2023-03-14T11:27:47;3.65;;;0.38;;
46429;SDS011;32131;53.454;-6.180;2023-03-14T11:30:25;2.40;;;0.50;;
46429;SDS011;32131;53.454;-6.180;2023-03-14T11:33:03;6.13;;;0.65;;
46429;SDS011;32131;53.454;-6.180;2023-03-14T11:35:38;1.27;;;0.60;;
46429;SDS011;32131;53.454;-6.180;2023-03-14T11:38:16;6.40;;;0.60;;
46429;SDS011;32131;53.454;-6.180;2023-03-14T11:40:51;15.73;;;0.85;;
46429;SDS011;32131;53.454;-6.180;2023-03-14T11:43:25;4.68;;;0.50;;
46429;SDS011;32131;53.454;-6.180;2023-03-14T11:45:59;1.77;;;0.55;;
46429;SDS011;32131;53.454;-6.180;2023-03-14T11:48:35;3.08;;;0.70;;
46429;SDS011;32131;53.454;-6.180;2023-03-14T11:51:17;4.03;;;0.57;;
46429;SDS011;32131;53.454;-6.180;2023-03-14T11:53:55;1.98;;;0.40;;
46429;SDS011;32131;53.454;-6.180;2023-03-14T11:56:31;5.20;;;1.00;;
46429;SDS011;32131;53.454;-6.180;2023-03-14T11:59:03;1.10;;;0.35;;
46429;SDS011;32131;53.454;-6.180;2023-03-14T12:01:36;1.23;;;0.38;;
46429;SDS011;32131;53.454;-6.180;2023-03-14T12:04:20;1.50;;;0.55;;
46429;SDS011;32131;53.454;-6.180;2023-03-14T12:07:02;3.08;;;0.40;;
46429;SDS011;32131;53.454;-6.180;2023-03-14T12:09:38;3.72;;;0.82;;
46429;SDS011;32131;53.454;-6.180;2023-03-14T12:12:10;1.50;;;0.40;;
46429;SDS011;32131;53.454;-6.180;2023-03-14T12:14:44;4.38;;;0.57;;
46429;SDS011;32131;53.454;-6.180;2023-03-14T12:17:33;3.78;;;0.63;;
46429;SDS011;32131;53.454;-6.180;2023-03-14T12:20:05;1.87;;;0.60;;
46429;SDS011;32131;53.454;-6.180;2023-03-14T12:22:47;5.05;;;0.75;;
46429;SDS011;32131;53.454;-6.180;2023-03-14T12:25:20;2.05;;;0.50;;
46429;SDS011;32131;53.454;-6.180;2023-03-14T12:37:04;0.90;;;0.20;;
46429;SDS011;32131;53.454;-6.180;2023-03-14T12:39:46;2.10;;;0.25;;
46429;SDS011;32131;53.454;-6.180;2023-03-14T12:42:36;0.90;;;0.20;;
46429;SDS011;32131;53.454;-6.180;2023-03-14T12:45:24;0.30;;;0.10;;
46429;SDS011;32131;53.454;-6.180;2023-03-14T12:48:04;3.72;;;0.40;;
46429;SDS011;32131;53.454;-6.180;2023-03-14T12:50:39;1.38;;;0.43;;
46429;SDS011;32131;53.454;-6.180;2023-03-14T12:53:20;0.60;;;0.20;;
46429;SDS011;32131;53.454;-6.180;2023-03-14T12:59:25;0.68;;;0.13;;
46429;SDS011;32131;53.454;-6.180;2023-03-14T13:02:10;0.77;;;0.20;;
46429;SDS011;32131;53.454;-6.180;2023-03-14T13:08:02;0.43;;;0.10;;
46429;SDS011;32131;53.454;-6.180;2023-03-14T13:10:38;1.85;;;0.20;;
46429;SDS011;32131;53.454;-6.180;2023-03-14T13:13:14;1.92;;;0.32;;
46429;SDS011;32131;53.454;-6.180;2023-03-14T13:15:47;3.40;;;0.20;;
46429;SDS011;32131;53.454;-6.180;2023-03-14T13:18:18;1.65;;;0.20;;
46429;SDS011;32131;53.454;-6.180;2023-03-14T13:20:55;2.83;;;0.22;;
46429;SDS011;32131;53.454;-6.180;2023-03-14T13:23:27;0.60;;;0.17;;
46429;SDS011;32131;53.454;-6.180;2023-03-14T13:25:58;0.50;;;0.10;;
46429;SDS011;32131;53.454;-6.180;2023-03-14T13:28:29;1.27;;;0.00;;
46429;SDS011;32131;53.454;-6.180;2023-03-14T13:31:00;0.30;;;0.10;;
46429;SDS011;32131;53.454;-6.180;2023-03-14T13:33:30;0.22;;;0.20;;
46429;SDS011;32131;53.454;-6.180;2023-03-14T13:36:01;0.22;;;0.10;;
46429;SDS011;32131;53.454;-6.180;2023-03-14T13:38:31;0.30;;;0.10;;
46429;SDS011;32131;53.454;-6.180;2023-03-14T13:41:03;1.33;;;0.10;;
46429;SDS011;32131;53.454;-6.180;2023-03-14T13:43:35;1.92;;;0.28;;
46429;SDS011;32131;53.454;-6.180;2023-03-14T13:46:11;0.77;;;0.10;;
46429;SDS011;32131;53.454;-6.180;2023-03-14T13:48:45;1.10;;;0.20;;
46429;SDS011;32131;53.454;-6.180;2023-03-14T13:51:16;1.65;;;0.10;;
46429;SDS011;32131;53.454;-6.180;2023-03-14T13:53:46;0.52;;;0.10;;
46429;SDS011;32131;53.454;-6.180;2023-03-14T13:56:17;0.20;;;0.05;;
46429;SDS011;32131;53.454;-6.180;2023-03-14T13:58:48;1.27;;;0.20;;
46429;SDS011;32131;53.454;-6.180;2023-03-14T14:01:18;1.55;;;0.25;;
46429;SDS011;32131;53.454;-6.180;2023-03-14T14:06:28;3.80;;;0.43;;
46429;SDS011;32131;53.454;-6.180;2023-03-14T14:08:58;10.65;;;0.68;;
46429;SDS011;32131;53.454;-6.180;2023-03-14T14:11:32;2.90;;;0.45;;
46429;SDS011;32131;53.454;-6.180;2023-03-14T14:14:18;1.13;;;0.28;;
46429;SDS011;32131;53.454;-6.180;2023-03-14T14:16:51;0.82;;;0.15;;
46429;SDS011;32131;53.454;-6.180;2023-03-14T14:19:21;5.28;;;0.32;;
46429;SDS011;32131;53.454;-6.180;2023-03-14T14:24:20;0.28;;;0.03;;
46429;SDS011;32131;53.454;-6.180;2023-03-14T14:26:52;1.00;;;0.10;;
46429;SDS011;32131;53.454;-6.180;2023-03-14T14:29:26;0.50;;;0.10;;
46429;SDS011;32131;53.454;-6.180;2023-03-14T14:31:59;1.20;;;0.28;;
46429;SDS011;32131;53.454;-6.180;2023-03-14T14:34:29;2.63;;;0.13;;
46429;SDS011;32131;53.454;-6.180;2023-03-14T14:37:14;1.45;;;0.32;;
46429;SDS011;32131;53.454;-6.180;2023-03-14T14:39:47;2.00;;;0.20;;
46429;SDS011;32131;53.454;-6.180;2023-03-14T14:42:18;1.05;;;0.30;;
46429;SDS011;32131;53.454;-6.180;2023-03-14T14:44:51;0.25;;;0.25;;
46429;SDS011;32131;53.454;-6.180;2023-03-14T14:47:20;1.15;;;0.15;;
46429;SDS011;32131;53.454;-6.180;2023-03-14T14:49:51;0.20;;;0.10;;
46429;SDS011;32131;53.454;-6.180;2023-03-14T14:52:27;0.60;;;0.13;;
46429;SDS011;32131;53.454;-6.180;2023-03-14T14:55:01;0.28;;;0.08;;
46429;SDS011;32131;53.454;-6.180;2023-03-14T14:57:31;0.90;;;0.20;;
46429;SDS011;32131;53.454;-6.180;2023-03-14T15:00:07;0.60;;;0.20;;
46429;SDS011;32131;53.454;-6.180;2023-03-14T15:02:40;0.10;;;0.05;;
46429;SDS011;32131;53.454;-6.180;2023-03-14T15:05:13;0.65;;;0.00;;
46429;SDS011;32131;53.454;-6.180;2023-03-14T15:07:43;0.40;;;0.05;;
46429;SDS011;32131;53.454;-6.180;2023-03-14T15:10:12;0.00;;;0.00;;
46429;SDS011;32131;53.454;-6.180;2023-03-14T15:12:45;0.13;;;0.00;;
46429;SDS011;32131;53.454;-6.180;2023-03-14T15:15:16;0.50;;;0.10;;
46429;SDS011;32131;53.454;-6.180;2023-03-14T15:17:46;0.63;;;0.20;;
46429;SDS011;32131;53.454;-6.180;2023-03-14T15:20:18;0.10;;;0.10;;
46429;SDS011;32131;53.454;-6.180;2023-03-14T15:22:52;0.35;;;0.20;;
46429;SDS011;32131;53.454;-6.180;2023-03-14T15:25:21;0.15;;;0.10;;
46429;SDS011;32131;53.454;-6.180;2023-03-14T15:28:17;1.33;;;0.35;;
46429;SDS011;32131;53.454;-6.180;2023-03-14T15:30:49;0.10;;;0.10;;
46429;SDS011;32131;53.454;-6.180;2023-03-14T15:33:22;0.40;;;0.20;;
46429;SDS011;32131;53.454;-6.180;2023-03-14T15:35:51;0.50;;;0.20;;
46429;SDS011;32131;53.454;-6.180;2023-03-14T15:38:20;1.38;;;0.40;;
46429;SDS011;32131;53.454;-6.180;2023-03-14T15:40:50;0.90;;;0.20;;
46429;SDS011;32131;53.454;-6.180;2023-03-14T15:43:20;3.20;;;0.40;;
46429;SDS011;32131;53.454;-6.180;2023-03-14T15:48:52;0.30;;;0.23;;
46429;SDS011;32131;53.454;-6.180;2023-03-14T15:51:24;1.23;;;0.55;;
46429;SDS011;32131;53.454;-6.180;2023-03-14T15:56:40;3.10;;;0.70;;
46429;SDS011;32131;53.454;-6.180;2023-03-14T15:59:09;0.95;;;0.30;;
46429;SDS011;32131;53.454;-6.180;2023-03-14T16:01:40;2.22;;;0.68;;
46429;SDS011;32131;53.454;-6.180;2023-03-14T16:04:11;1.65;;;0.40;;
46429;SDS011;32131;53.454;-6.180;2023-03-14T16:06:39;3.60;;;0.80;;
46429;SDS011;32131;53.454;-6.180;2023-03-14T16:09:10;5.68;;;0.60;;
46429;SDS011;32131;53.454;-6.180;2023-03-14T16:14:25;1.13;;;0.40;;
46429;SDS011;32131;53.454;-6.180;2023-03-14T16:16:57;4.78;;;0.70;;
46429;SDS011;32131;53.454;-6.180;2023-03-14T16:19:33;1.73;;;0.40;;
46429;SDS011;32131;53.454;-6.180;2023-03-14T16:22:02;2.60;;;1.30;;
46429;SDS011;32131;53.454;-6.180;2023-03-14T16:24:30;2.60;;;1.13;;
46429;SDS011;32131;53.454;-6.180;2023-03-14T16:26:59;6.88;;;3.05;;
46429;SDS011;32131;53.454;-6.180;2023-03-14T16:29:28;3.83;;;2.38;;
46429;SDS011;32131;53.454;-6.180;2023-03-14T16:43:56;1.40;;;0.50;;
46429;SDS011;32131;53.454;-6.180;2023-03-14T16:46:24;2.13;;;0.63;;
46429;SDS011;32131;53.454;-6.180;2023-03-14T16:51:23;5.10;;;0.75;;
46429;SDS011;32131;53.454;-6.180;2023-03-14T16:53:51;2.33;;;0.40;;
46429;SDS011;32131;53.454;-6.180;2023-03-14T16:56:22;2.67;;;1.52;;
46429;SDS011;32131;53.454;-6.180;2023-03-14T16:58:51;3.63;;;1.92;;
46429;SDS011;32131;53.454;-6.180;2023-03-14T17:01:21;4.50;;;2.10;;
46429;SDS011;32131;53.454;-6.180;2023-03-14T17:06:19;4.03;;;1.40;;
46429;SDS011;32131;53.454;-6.180;2023-03-14T17:08:49;14.48;;;3.15;;
46429;SDS011;32131;53.454;-6.180;2023-03-14T17:11:18;1.90;;;1.00;;
46429;SDS011;32131;53.454;-6.180;2023-03-14T17:16:44;5.72;;;2.60;;
46429;SDS011;32131;53.454;-6.180;2023-03-14T17:19:12;5.68;;;1.80;;
46429;SDS011;32131;53.454;-6.180;2023-03-14T17:21:40;8.70;;;5.13;;
46429;SDS011;32131;53.454;-6.180;2023-03-14T17:24:09;4.88;;;2.38;;
46429;SDS011;32131;53.454;-6.180;2023-03-14T17:26:37;8.18;;;2.78;;
46429;SDS011;32131;53.454;-6.180;2023-03-14T17:29:06;6.20;;;3.42;;
46429;SDS011;32131;53.454;-6.180;2023-03-14T17:31:36;3.90;;;2.10;;
46429;SDS011;32131;53.454;-6.180;2023-03-14T17:34:08;4.57;;;1.60;;
46429;SDS011;32131;53.454;-6.180;2023-03-14T17:36:38;4.82;;;2.50;;
46429;SDS011;32131;53.454;-6.180;2023-03-14T17:39:06;7.82;;;1.90;;
46429;SDS011;32131;53.454;-6.180;2023-03-14T17:41:34;10.48;;;1.92;;
46429;SDS011;32131;53.454;-6.180;2023-03-14T17:44:05;4.63;;;1.50;;
46429;SDS011;32131;53.454;-6.180;2023-03-14T17:46:36;6.60;;;1.60;;
46429;SDS011;32131;53.454;-6.180;2023-03-14T17:49:06;2.70;;;0.80;;
46429;SDS011;32131;53.454;-6.180;2023-03-14T17:51:34;4.53;;;0.88;;
46429;SDS011;32131;53.454;-6.180;2023-03-14T17:54:03;2.78;;;0.95;;
46429;SDS011;32131;53.454;-6.180;2023-03-14T17:56:32;3.58;;;1.08;;
46429;SDS011;32131;53.454;-6.180;2023-03-14T17:59:00;6.03;;;2.22;;
46429;SDS011;32131;53.454;-6.180;2023-03-14T18:01:31;6.80;;;2.22;;
46429;SDS011;32131;53.454;-6.180;2023-03-14T18:03:59;8.00;;;2.47;;
46429;SDS011;32131;53.454;-6.180;2023-03-14T18:06:37;5.43;;;1.98;;
46429;SDS011;32131;53.454;-6.180;2023-03-14T18:09:10;5.30;;;2.33;;
46429;SDS011;32131;53.454;-6.180;2023-03-14T18:11:38;4.93;;;1.58;;
46429;SDS011;32131;53.454;-6.180;2023-03-14T18:14:06;7.03;;;1.67;;
46429;SDS011;32131;53.454;-6.180;2023-03-14T18:16:37;5.80;;;2.20;;
46429;SDS011;32131;53.454;-6.180;2023-03-14T18:19:05;4.20;;;1.30;;
46429;SDS011;32131;53.454;-6.180;2023-03-14T18:21:43;7.05;;;1.70;;
46429;SDS011;32131;53.454;-6.180;2023-03-14T18:24:14;7.05;;;2.22;;
46429;SDS011;32131;53.454;-6.180;2023-03-14T18:26:47;5.15;;;1.90;;
46429;SDS011;32131;53.454;-6.180;2023-03-14T18:29:16;6.35;;;1.42;;
46429;SDS011;32131;53.454;-6.180;2023-03-14T18:31:44;4.55;;;1.50;;
46429;SDS011;32131;53.454;-6.180;2023-03-14T18:34:12;3.85;;;1.58;;
46429;SDS011;32131;53.454;-6.180;2023-03-14T18:36:43;6.97;;;3.08;;
46429;SDS011;32131;53.454;-6.180;2023-03-14T18:39:12;7.03;;;2.38;;
46429;SDS011;32131;53.454;-6.180;2023-03-14T18:41:40;4.10;;;1.38;;
46429;SDS011;32131;53.454;-6.180;2023-03-14T18:44:09;7.38;;;1.20;;
46429;SDS011;32131;53.454;-6.180;2023-03-14T18:46:37;9.57;;;2.28;;
46429;SDS011;32131;53.454;-6.180;2023-03-14T18:49:06;4.82;;;1.23;;
46429;SDS011;32131;53.454;-6.180;2023-03-14T18:51:35;7.97;;;2.42;;
46429;SDS011;32131;53.454;-6.180;2023-03-14T18:54:06;5.97;;;1.63;;
46429;SDS011;32131;53.454;-6.180;2023-03-14T18:56:36;6.18;;;2.10;;
46429;SDS011;32131;53.454;-6.180;2023-03-14T18:59:07;6.00;;;2.38;;
46429;SDS011;32131;53.454;-6.180;2023-03-14T19:01:40;9.38;;;2.63;;
46429;SDS011;32131;53.454;-6.180;2023-03-14T19:04:09;6.72;;;2.67;;
46429;SDS011;32131;53.454;-6.180;2023-03-14T19:06:37;9.63;;;3.47;;
46429;SDS011;32131;53.454;-6.180;2023-03-14T19:09:08;6.88;;;2.70;;
46429;SDS011;32131;53.454;-6.180;2023-03-14T19:11:40;9.02;;;3.85;;
46429;SDS011;32131;53.454;-6.180;2023-03-14T19:14:09;6.47;;;2.63;;
46429;SDS011;32131;53.454;-6.180;2023-03-14T19:16:38;5.32;;;2.38;;
46429;SDS011;32131;53.454;-6.180;2023-03-14T19:19:06;5.53;;;2.50;;
46429;SDS011;32131;53.454;-6.180;2023-03-14T19:21:35;19.52;;;4.05;;
46429;SDS011;32131;53.454;-6.180;2023-03-14T19:24:04;13.18;;;6.03;;
46429;SDS011;32131;53.454;-6.180;2023-03-14T19:26:35;10.27;;;4.03;;
46429;SDS011;32131;53.454;-6.180;2023-03-14T19:29:04;11.85;;;4.60;;
46429;SDS011;32131;53.454;-6.180;2023-03-14T19:31:35;19.98;;;6.72;;
46429;SDS011;32131;53.454;-6.180;2023-03-14T19:34:03;15.68;;;4.88;;
46429;SDS011;32131;53.454;-6.180;2023-03-14T19:36:32;17.02;;;6.55;;
46429;SDS011;32131;53.454;-6.180;2023-03-14T19:39:03;12.93;;;6.30;;
46429;SDS011;32131;53.454;-6.180;2023-03-14T19:41:32;14.60;;;4.45;;
46429;SDS011;32131;53.454;-6.180;2023-03-14T19:44:04;15.65;;;7.80;;
46429;SDS011;32131;53.454;-6.180;2023-03-14T19:46:33;23.48;;;11.38;;
46429;SDS011;32131;53.454;-6.180;2023-03-14T19:49:01;23.45;;;10.35;;
46429;SDS011;32131;53.454;-6.180;2023-03-14T19:51:31;20.25;;;7.70;;
46429;SDS011;32131;53.454;-6.180;2023-03-14T19:54:01;7.70;;;3.53;;
46429;SDS011;32131;53.454;-6.180;2023-03-14T19:56:30;6.50;;;2.45;;
46429;SDS011;32131;53.454;-6.180;2023-03-14T20:01:59;7.85;;;1.88;;
46429;SDS011;32131;53.454;-6.180;2023-03-14T20:05:31;7.82;;;2.63;;
46429;SDS011;32131;53.454;-6.180;2023-03-14T21:19:29;8.10;;;3.08;;
46429;SDS011;32131;53.454;-6.180;2023-03-14T21:22:23;12.68;;;4.03;;
46429;SDS011;32131;53.454;-6.180;2023-03-14T21:26:12;7.32;;;3.08;;
46429;SDS011;32131;53.454;-6.180;2023-03-14T21:29:25;9.02;;;3.33;;
46429;SDS011;32131;53.454;-6.180;2023-03-14T22:10:32;21.33;;;6.28;;
46429;SDS011;32131;53.454;-6.180;2023-03-14T22:23:04;10.60;;;4.03;;
46429;SDS011;32131;53.454;-6.180;2023-03-14T22:57:55;5.47;;;2.17;;
46429;SDS011;32131;53.454;-6.180;2023-03-14T23:01:43;6.97;;;2.38;;
46429;SDS011;32131;53.454;-6.180;2023-03-14T23:04:22;6.88;;;2.30;;
46429;SDS011;32131;53.454;-6.180;2023-03-14T23:07:18;11.52;;;3.92;;
46429;SDS011;32131;53.454;-6.180;2023-03-14T23:10:40;12.07;;;3.10;;
46429;SDS011;32131;53.454;-6.180;2023-03-14T23:13:37;12.77;;;4.00;;
46429;SDS011;32131;53.454;-6.180;2023-03-14T23:16:54;12.60;;;4.07;;
46429;SDS011;32131;53.454;-6.180;2023-03-14T23:20:08;8.57;;;3.28;;
46429;SDS011;32131;53.454;-6.180;2023-03-14T23:23:14;7.43;;;3.33;;
46429;SDS011;32131;53.454;-6.180;2023-03-14T23:29:21;18.38;;;3.75;;
46429;SDS011;32131;53.454;-6.180;2023-03-14T23:31:55;8.40;;;3.03;;
46429;SDS011;32131;53.454;-6.180;2023-03-14T23:34:26;9.70;;;2.90;;
46429;SDS011;32131;53.454;-6.180;2023-03-14T23:36:54;10.60;;;3.58;;
46429;SDS011;32131;53.454;-6.180;2023-03-14T23:39:39;6.68;;;2.83;;
46429;SDS011;32131;53.454;-6.180;2023-03-14T23:42:10;7.45;;;2.30;;
46429;SDS011;32131;53.454;-6.180;2023-03-14T23:44:50;9.25;;;3.25;;
46429;SDS011;32131;53.454;-6.180;2023-03-14T23:47:22;7.55;;;3.25;;
46429;SDS011;32131;53.454;-6.180;2023-03-14T23:49:56;6.43;;;2.97;;
46429;SDS011;32131;53.454;-6.180;2023-03-14T23:52:33;11.20;;;3.00;;
46429;SDS011;32131;53.454;-6.180;2023-03-14T23:55:04;9.02;;;3.67;;
46429;SDS011;32131;53.454;-6.180;2023-03-14T23:57:36;11.38;;;3.67;;
